sensor_id;sensor_type;location;lat;lon;timestamp;P1;durP1;ratioP1;P2;durP2;ratioP2
14048;SDS011;7099;53.922;10.728;2024-02-23T00:03:54;1.80;;;0.93;;
14048;SDS011;7099;53.922;10.728;2024-02-23T00:08:00;1.23;;;0.83;;
14048;SDS011;7099;53.922;10.728;2024-02-23T00:12:06;1.10;;;0.80;;
14048;SDS011;7099;53.922;10.728;2024-02-23T00:16:13;0.70;;;0.70;;
14048;SDS011;7099;53.922;10.728;2024-02-23T00:20:19;1.03;;;0.87;;
14048;SDS011;7099;53.922;10.728;2024-02-23T00:24:25;3.00;;;1.13;;
14048;SDS011;7099;53.922;10.728;2024-02-23T00:28:30;2.67;;;0.70;;
14048;SDS011;7099;53.922;10.728;2024-02-23T00:32:36;1.93;;;1.00;;
14048;SDS011;7099;53.922;10.728;2024-02-23T00:36:42;1.10;;;0.70;;
14048;SDS011;7099;53.922;10.728;2024-02-23T00:40:49;1.70;;;0.80;;
14048;SDS011;7099;53.922;10.728;2024-02-23T00:44:55;0.70;;;0.70;;
14048;SDS011;7099;53.922;10.728;2024-02-23T00:49:00;1.47;;;0.90;;
14048;SDS011;7099;53.922;10.728;2024-02-23T00:53:07;5.40;;;1.10;;
14048;SDS011;7099;53.922;10.728;2024-02-23T00:57:13;3.27;;;1.13;;
14048;SDS011;7099;53.922;10.728;2024-02-23T01:01:18;3.87;;;1.00;;
14048;SDS011;7099;53.922;10.728;2024-02-23T01:05:24;1.20;;;0.83;;
14048;SDS011;7099;53.922;10.728;2024-02-23T01:09:29;1.13;;;0.97;;
14048;SDS011;7099;53.922;10.728;2024-02-23T01:13:35;0.83;;;0.70;;
14048;SDS011;7099;53.922;10.728;2024-02-23T01:17:40;1.27;;;0.70;;
14048;SDS011;7099;53.922;10.728;2024-02-23T01:21:46;1.03;;;0.70;;
14048;SDS011;7099;53.922;10.728;2024-02-23T01:25:52;1.20;;;0.90;;
14048;SDS011;7099;53.922;10.728;2024-02-23T01:34:03;1.20;;;0.70;;
14048;SDS011;7099;53.922;10.728;2024-02-23T01:38:09;0.80;;;0.60;;
14048;SDS011;7099;53.922;10.728;2024-02-23T01:42:14;0.60;;;0.60;;
14048;SDS011;7099;53.922;10.728;2024-02-23T01:46:20;0.53;;;0.53;;
14048;SDS011;7099;53.922;10.728;2024-02-23T01:50:26;0.80;;;0.60;;
14048;SDS011;7099;53.922;10.728;2024-02-23T01:54:32;2.97;;;0.70;;
14048;SDS011;7099;53.922;10.728;2024-02-23T01:58:39;0.60;;;0.50;;
14048;SDS011;7099;53.922;10.728;2024-02-23T02:02:46;0.80;;;0.70;;
14048;SDS011;7099;53.922;10.728;2024-02-23T02:06:53;0.50;;;0.50;;
14048;SDS011;7099;53.922;10.728;2024-02-23T02:10:59;0.60;;;0.60;;
14048;SDS011;7099;53.922;10.728;2024-02-23T02:15:05;0.60;;;0.60;;
14048;SDS011;7099;53.922;10.728;2024-02-23T02:19:11;0.57;;;0.50;;
14048;SDS011;7099;53.922;10.728;2024-02-23T02:23:18;0.53;;;0.53;;
14048;SDS011;7099;53.922;10.728;2024-02-23T02:27:24;1.17;;;0.60;;
14048;SDS011;7099;53.922;10.728;2024-02-23T02:31:29;0.60;;;0.50;;
14048;SDS011;7099;53.922;10.728;2024-02-23T02:35:41;0.50;;;0.50;;
14048;SDS011;7099;53.922;10.728;2024-02-23T02:39:47;0.60;;;0.60;;
14048;SDS011;7099;53.922;10.728;2024-02-23T02:43:52;1.10;;;0.50;;
14048;SDS011;7099;53.922;10.728;2024-02-23T02:47:59;0.90;;;0.60;;
14048;SDS011;7099;53.922;10.728;2024-02-23T02:52:08;0.50;;;0.50;;
14048;SDS011;7099;53.922;10.728;2024-02-23T02:56:14;0.60;;;0.50;;
14048;SDS011;7099;53.922;10.728;2024-02-23T03:00:20;1.83;;;0.60;;
14048;SDS011;7099;53.922;10.728;2024-02-23T03:04:25;2.10;;;1.03;;
14048;SDS011;7099;53.922;10.728;2024-02-23T03:08:31;0.50;;;0.50;;
14048;SDS011;7099;53.922;10.728;2024-02-23T03:12:38;0.50;;;0.50;;
14048;SDS011;7099;53.922;10.728;2024-02-23T03:16:44;0.60;;;0.60;;
14048;SDS011;7099;53.922;10.728;2024-02-23T03:20:52;1.87;;;0.60;;
14048;SDS011;7099;53.922;10.728;2024-02-23T03:24:58;0.95;;;0.70;;
14048;SDS011;7099;53.922;10.728;2024-02-23T03:29:04;0.83;;;0.50;;
14048;SDS011;7099;53.922;10.728;2024-02-23T03:33:09;0.70;;;0.60;;
14048;SDS011;7099;53.922;10.728;2024-02-23T03:37:15;0.83;;;0.60;;
14048;SDS011;7099;53.922;10.728;2024-02-23T03:41:20;4.20;;;0.70;;
14048;SDS011;7099;53.922;10.728;2024-02-23T03:45:26;0.60;;;0.60;;
14048;SDS011;7099;53.922;10.728;2024-02-23T03:49:31;0.70;;;0.60;;
14048;SDS011;7099;53.922;10.728;2024-02-23T03:58:04;1.00;;;0.60;;
14048;SDS011;7099;53.922;10.728;2024-02-23T04:02:10;1.80;;;0.70;;
14048;SDS011;7099;53.922;10.728;2024-02-23T04:06:16;4.53;;;0.80;;
14048;SDS011;7099;53.922;10.728;2024-02-23T04:10:22;3.00;;;0.83;;
14048;SDS011;7099;53.922;10.728;2024-02-23T04:14:27;4.10;;;0.73;;
14048;SDS011;7099;53.922;10.728;2024-02-23T04:18:33;3.00;;;0.70;;
14048;SDS011;7099;53.922;10.728;2024-02-23T04:22:38;2.30;;;0.70;;
14048;SDS011;7099;53.922;10.728;2024-02-23T04:26:44;0.80;;;0.70;;
14048;SDS011;7099;53.922;10.728;2024-02-23T04:30:49;2.93;;;0.70;;
14048;SDS011;7099;53.922;10.728;2024-02-23T04:34:55;2.20;;;0.80;;
14048;SDS011;7099;53.922;10.728;2024-02-23T04:39:01;1.73;;;1.20;;
14048;SDS011;7099;53.922;10.728;2024-02-23T04:43:07;2.13;;;0.80;;
14048;SDS011;7099;53.922;10.728;2024-02-23T04:59:29;2.80;;;0.87;;
14048;SDS011;7099;53.922;10.728;2024-02-23T05:03:37;3.40;;;1.27;;
14048;SDS011;7099;53.922;10.728;2024-02-23T05:07:42;10.70;;;0.80;;
14048;SDS011;7099;53.922;10.728;2024-02-23T05:11:48;3.07;;;1.10;;
14048;SDS011;7099;53.922;10.728;2024-02-23T05:15:55;1.53;;;0.87;;
14048;SDS011;7099;53.922;10.728;2024-02-23T05:20:01;1.83;;;1.13;;
14048;SDS011;7099;53.922;10.728;2024-02-23T05:24:13;1.90;;;1.07;;
14048;SDS011;7099;53.922;10.728;2024-02-23T05:28:18;1.37;;;1.00;;
14048;SDS011;7099;53.922;10.728;2024-02-23T05:32:24;3.90;;;1.07;;
14048;SDS011;7099;53.922;10.728;2024-02-23T05:36:29;1.50;;;0.93;;
14048;SDS011;7099;53.922;10.728;2024-02-23T05:40:35;0.90;;;0.80;;
14048;SDS011;7099;53.922;10.728;2024-02-23T05:44:44;4.97;;;1.23;;
14048;SDS011;7099;53.922;10.728;2024-02-23T05:48:49;1.20;;;1.10;;
14048;SDS011;7099;53.922;10.728;2024-02-23T05:52:55;2.70;;;1.00;;
14048;SDS011;7099;53.922;10.728;2024-02-23T05:57:01;2.80;;;1.10;;
14048;SDS011;7099;53.922;10.728;2024-02-23T06:01:07;1.20;;;1.10;;
14048;SDS011;7099;53.922;10.728;2024-02-23T06:05:13;6.70;;;1.20;;
14048;SDS011;7099;53.922;10.728;2024-02-23T06:09:19;2.80;;;1.10;;
14048;SDS011;7099;53.922;10.728;2024-02-23T06:13:24;3.10;;;1.10;;
14048;SDS011;7099;53.922;10.728;2024-02-23T06:17:30;2.87;;;1.20;;
14048;SDS011;7099;53.922;10.728;2024-02-23T06:24:30;8.67;;;1.60;;
14048;SDS011;7099;53.922;10.728;2024-02-23T06:28:36;3.27;;;1.40;;
14048;SDS011;7099;53.922;10.728;2024-02-23T06:32:43;2.83;;;1.10;;
14048;SDS011;7099;53.922;10.728;2024-02-23T06:36:50;4.10;;;1.30;;
14048;SDS011;7099;53.922;10.728;2024-02-23T06:40:56;2.57;;;1.30;;
14048;SDS011;7099;53.922;10.728;2024-02-23T06:45:02;4.07;;;1.50;;
14048;SDS011;7099;53.922;10.728;2024-02-23T06:49:08;3.07;;;1.23;;
14048;SDS011;7099;53.922;10.728;2024-02-23T06:53:14;5.03;;;1.40;;
14048;SDS011;7099;53.922;10.728;2024-02-23T06:57:19;3.90;;;1.40;;
14048;SDS011;7099;53.922;10.728;2024-02-23T07:01:25;4.40;;;1.10;;
14048;SDS011;7099;53.922;10.728;2024-02-23T07:05:31;4.00;;;1.43;;
14048;SDS011;7099;53.922;10.728;2024-02-23T07:09:37;1.90;;;1.30;;
14048;SDS011;7099;53.922;10.728;2024-02-23T07:13:43;1.23;;;1.10;;
14048;SDS011;7099;53.922;10.728;2024-02-23T07:17:49;4.03;;;1.23;;
14048;SDS011;7099;53.922;10.728;2024-02-23T07:21:55;2.27;;;1.00;;
14048;SDS011;7099;53.922;10.728;2024-02-23T07:26:00;3.43;;;1.30;;
14048;SDS011;7099;53.922;10.728;2024-02-23T07:30:06;2.63;;;1.40;;
14048;SDS011;7099;53.922;10.728;2024-02-23T07:34:12;2.63;;;1.20;;
14048;SDS011;7099;53.922;10.728;2024-02-23T07:38:18;3.40;;;1.00;;
14048;SDS011;7099;53.922;10.728;2024-02-23T07:42:24;5.47;;;1.40;;
14048;SDS011;7099;53.922;10.728;2024-02-23T07:46:29;3.47;;;1.10;;
14048;SDS011;7099;53.922;10.728;2024-02-23T07:50:35;3.03;;;1.00;;
14048;SDS011;7099;53.922;10.728;2024-02-23T07:54:41;2.63;;;1.37;;
14048;SDS011;7099;53.922;10.728;2024-02-23T07:58:46;3.37;;;1.30;;
14048;SDS011;7099;53.922;10.728;2024-02-23T08:02:52;6.47;;;1.80;;
14048;SDS011;7099;53.922;10.728;2024-02-23T08:07:01;4.00;;;1.40;;
14048;SDS011;7099;53.922;10.728;2024-02-23T08:11:07;2.77;;;1.70;;
14048;SDS011;7099;53.922;10.728;2024-02-23T08:15:13;4.77;;;2.03;;
14048;SDS011;7099;53.922;10.728;2024-02-23T08:19:19;5.73;;;1.50;;
14048;SDS011;7099;53.922;10.728;2024-02-23T08:23:25;3.27;;;1.60;;
14048;SDS011;7099;53.922;10.728;2024-02-23T08:27:30;2.30;;;1.33;;
14048;SDS011;7099;53.922;10.728;2024-02-23T08:31:36;3.60;;;1.57;;
14048;SDS011;7099;53.922;10.728;2024-02-23T08:35:46;2.73;;;1.50;;
14048;SDS011;7099;53.922;10.728;2024-02-23T08:39:53;3.87;;;1.30;;
14048;SDS011;7099;53.922;10.728;2024-02-23T08:43:59;6.43;;;1.40;;
14048;SDS011;7099;53.922;10.728;2024-02-23T08:48:04;1.90;;;1.47;;
14048;SDS011;7099;53.922;10.728;2024-02-23T08:52:11;4.80;;;1.60;;
14048;SDS011;7099;53.922;10.728;2024-02-23T08:56:17;4.50;;;1.50;;
14048;SDS011;7099;53.922;10.728;2024-02-23T09:00:32;4.47;;;1.20;;
14048;SDS011;7099;53.922;10.728;2024-02-23T09:04:38;3.37;;;1.23;;
14048;SDS011;7099;53.922;10.728;2024-02-23T09:08:43;5.27;;;1.90;;
14048;SDS011;7099;53.922;10.728;2024-02-23T09:12:49;3.97;;;1.53;;
14048;SDS011;7099;53.922;10.728;2024-02-23T09:16:54;4.97;;;1.63;;
14048;SDS011;7099;53.922;10.728;2024-02-23T09:21:00;6.10;;;1.70;;
14048;SDS011;7099;53.922;10.728;2024-02-23T09:25:06;4.23;;;1.30;;
14048;SDS011;7099;53.922;10.728;2024-02-23T09:29:14;5.63;;;1.50;;
14048;SDS011;7099;53.922;10.728;2024-02-23T09:33:20;1.70;;;1.43;;
14048;SDS011;7099;53.922;10.728;2024-02-23T09:37:25;2.70;;;1.00;;
14048;SDS011;7099;53.922;10.728;2024-02-23T09:41:31;4.33;;;1.37;;
14048;SDS011;7099;53.922;10.728;2024-02-23T09:45:36;5.63;;;1.83;;
14048;SDS011;7099;53.922;10.728;2024-02-23T09:49:43;7.17;;;2.13;;
14048;SDS011;7099;53.922;10.728;2024-02-23T09:53:49;4.60;;;1.50;;
14048;SDS011;7099;53.922;10.728;2024-02-23T09:57:59;4.60;;;1.30;;
14048;SDS011;7099;53.922;10.728;2024-02-23T10:02:08;1.30;;;1.00;;
14048;SDS011;7099;53.922;10.728;2024-02-23T10:06:15;4.70;;;1.80;;
14048;SDS011;7099;53.922;10.728;2024-02-23T10:10:38;6.63;;;1.60;;
14048;SDS011;7099;53.922;10.728;2024-02-23T10:14:44;3.37;;;1.10;;
14048;SDS011;7099;53.922;10.728;2024-02-23T10:18:49;2.13;;;1.10;;
14048;SDS011;7099;53.922;10.728;2024-02-23T10:22:56;2.97;;;1.20;;
14048;SDS011;7099;53.922;10.728;2024-02-23T10:27:02;1.90;;;1.23;;
14048;SDS011;7099;53.922;10.728;2024-02-23T10:31:08;4.60;;;1.57;;
14048;SDS011;7099;53.922;10.728;2024-02-23T10:35:17;6.17;;;1.27;;
14048;SDS011;7099;53.922;10.728;2024-02-23T10:39:24;5.40;;;1.60;;
14048;SDS011;7099;53.922;10.728;2024-02-23T10:43:33;2.50;;;1.40;;
14048;SDS011;7099;53.922;10.728;2024-02-23T10:47:42;5.40;;;1.60;;
14048;SDS011;7099;53.922;10.728;2024-02-23T10:51:49;5.60;;;1.40;;
14048;SDS011;7099;53.922;10.728;2024-02-23T10:55:56;5.13;;;1.40;;
14048;SDS011;7099;53.922;10.728;2024-02-23T11:00:08;4.47;;;1.33;;
14048;SDS011;7099;53.922;10.728;2024-02-23T11:04:15;6.90;;;2.50;;
14048;SDS011;7099;53.922;10.728;2024-02-23T11:08:22;2.23;;;1.00;;
14048;SDS011;7099;53.922;10.728;2024-02-23T11:12:31;3.37;;;1.20;;
14048;SDS011;7099;53.922;10.728;2024-02-23T11:16:38;3.57;;;1.43;;
14048;SDS011;7099;53.922;10.728;2024-02-23T11:20:53;4.43;;;1.40;;
14048;SDS011;7099;53.922;10.728;2024-02-23T11:25:04;3.17;;;1.00;;
14048;SDS011;7099;53.922;10.728;2024-02-23T11:29:13;4.67;;;1.20;;
14048;SDS011;7099;53.922;10.728;2024-02-23T11:33:26;2.10;;;1.03;;
14048;SDS011;7099;53.922;10.728;2024-02-23T11:37:43;2.90;;;1.23;;
14048;SDS011;7099;53.922;10.728;2024-02-23T11:42:07;9.63;;;1.80;;
14048;SDS011;7099;53.922;10.728;2024-02-23T11:46:15;5.00;;;1.50;;
14048;SDS011;7099;53.922;10.728;2024-02-23T11:50:21;6.70;;;1.13;;
14048;SDS011;7099;53.922;10.728;2024-02-23T11:54:27;5.13;;;1.30;;
14048;SDS011;7099;53.922;10.728;2024-02-23T11:58:33;5.23;;;1.30;;
14048;SDS011;7099;53.922;10.728;2024-02-23T12:02:39;3.43;;;1.17;;
14048;SDS011;7099;53.922;10.728;2024-02-23T12:06:45;7.47;;;3.03;;
14048;SDS011;7099;53.922;10.728;2024-02-23T12:10:50;4.37;;;1.33;;
14048;SDS011;7099;53.922;10.728;2024-02-23T12:15:00;3.80;;;1.23;;
14048;SDS011;7099;53.922;10.728;2024-02-23T12:19:07;3.53;;;1.37;;
14048;SDS011;7099;53.922;10.728;2024-02-23T12:23:13;3.40;;;1.23;;
14048;SDS011;7099;53.922;10.728;2024-02-23T12:27:18;5.03;;;1.63;;
14048;SDS011;7099;53.922;10.728;2024-02-23T12:31:26;8.00;;;1.37;;
14048;SDS011;7099;53.922;10.728;2024-02-23T12:35:31;10.83;;;1.10;;
14048;SDS011;7099;53.922;10.728;2024-02-23T12:39:41;4.10;;;1.20;;
14048;SDS011;7099;53.922;10.728;2024-02-23T12:43:47;6.30;;;1.43;;
14048;SDS011;7099;53.922;10.728;2024-02-23T12:47:53;6.77;;;1.33;;
14048;SDS011;7099;53.922;10.728;2024-02-23T12:51:58;5.60;;;1.10;;
14048;SDS011;7099;53.922;10.728;2024-02-23T12:56:05;7.87;;;1.33;;
14048;SDS011;7099;53.922;10.728;2024-02-23T13:00:13;3.40;;;1.10;;
14048;SDS011;7099;53.922;10.728;2024-02-23T13:04:19;5.20;;;1.23;;
14048;SDS011;7099;53.922;10.728;2024-02-23T13:08:25;4.20;;;1.33;;
14048;SDS011;7099;53.922;10.728;2024-02-23T13:12:32;5.43;;;1.10;;
14048;SDS011;7099;53.922;10.728;2024-02-23T13:16:37;9.10;;;1.10;;
14048;SDS011;7099;53.922;10.728;2024-02-23T13:20:43;1.77;;;0.80;;
14048;SDS011;7099;53.922;10.728;2024-02-23T13:24:49;2.93;;;1.30;;
14048;SDS011;7099;53.922;10.728;2024-02-23T13:28:54;2.20;;;1.10;;
14048;SDS011;7099;53.922;10.728;2024-02-23T13:33:00;3.83;;;1.10;;
14048;SDS011;7099;53.922;10.728;2024-02-23T13:37:06;3.20;;;1.10;;
14048;SDS011;7099;53.922;10.728;2024-02-23T13:41:11;3.03;;;1.27;;
14048;SDS011;7099;53.922;10.728;2024-02-23T13:45:17;3.10;;;1.00;;
14048;SDS011;7099;53.922;10.728;2024-02-23T13:49:23;3.40;;;1.17;;
14048;SDS011;7099;53.922;10.728;2024-02-23T13:53:29;3.53;;;1.20;;
14048;SDS011;7099;53.922;10.728;2024-02-23T13:57:36;3.23;;;1.10;;
14048;SDS011;7099;53.922;10.728;2024-02-23T14:01:41;3.90;;;1.10;;
14048;SDS011;7099;53.922;10.728;2024-02-23T14:05:47;1.53;;;1.00;;
14048;SDS011;7099;53.922;10.728;2024-02-23T14:09:53;1.20;;;1.00;;
14048;SDS011;7099;53.922;10.728;2024-02-23T14:13:58;1.93;;;1.00;;
14048;SDS011;7099;53.922;10.728;2024-02-23T14:18:04;1.43;;;0.90;;
14048;SDS011;7099;53.922;10.728;2024-02-23T14:22:10;2.40;;;1.07;;
14048;SDS011;7099;53.922;10.728;2024-02-23T14:26:16;2.80;;;0.93;;
14048;SDS011;7099;53.922;10.728;2024-02-23T14:30:21;2.30;;;1.77;;
14048;SDS011;7099;53.922;10.728;2024-02-23T14:34:27;2.10;;;1.00;;
14048;SDS011;7099;53.922;10.728;2024-02-23T14:38:34;5.03;;;1.00;;
14048;SDS011;7099;53.922;10.728;2024-02-23T14:42:39;3.87;;;1.00;;
14048;SDS011;7099;53.922;10.728;2024-02-23T14:46:45;5.03;;;1.07;;
14048;SDS011;7099;53.922;10.728;2024-02-23T14:50:51;6.70;;;0.97;;
14048;SDS011;7099;53.922;10.728;2024-02-23T14:54:57;3.13;;;0.80;;
14048;SDS011;7099;53.922;10.728;2024-02-23T14:59:02;1.60;;;0.80;;
14048;SDS011;7099;53.922;10.728;2024-02-23T15:03:10;1.37;;;0.90;;
14048;SDS011;7099;53.922;10.728;2024-02-23T15:07:15;4.00;;;0.93;;
14048;SDS011;7099;53.922;10.728;2024-02-23T15:11:22;1.90;;;0.87;;
14048;SDS011;7099;53.922;10.728;2024-02-23T15:15:28;2.60;;;0.83;;
14048;SDS011;7099;53.922;10.728;2024-02-23T15:19:33;1.83;;;1.07;;
14048;SDS011;7099;53.922;10.728;2024-02-23T15:23:39;0.73;;;0.67;;
14048;SDS011;7099;53.922;10.728;2024-02-23T15:27:48;1.60;;;1.03;;
14048;SDS011;7099;53.922;10.728;2024-02-23T15:31:54;6.50;;;1.10;;
14048;SDS011;7099;53.922;10.728;2024-02-23T15:36:00;1.27;;;1.00;;
14048;SDS011;7099;53.922;10.728;2024-02-23T15:40:09;2.27;;;0.97;;
14048;SDS011;7099;53.922;10.728;2024-02-23T15:44:15;2.50;;;1.20;;
14048;SDS011;7099;53.922;10.728;2024-02-23T15:48:21;2.27;;;1.00;;
14048;SDS011;7099;53.922;10.728;2024-02-23T15:52:28;2.13;;;1.20;;
14048;SDS011;7099;53.922;10.728;2024-02-23T15:56:34;2.90;;;1.27;;
14048;SDS011;7099;53.922;10.728;2024-02-23T16:00:40;2.30;;;1.00;;
14048;SDS011;7099;53.922;10.728;2024-02-23T16:04:46;1.40;;;0.73;;
14048;SDS011;7099;53.922;10.728;2024-02-23T16:08:51;3.03;;;1.07;;
14048;SDS011;7099;53.922;10.728;2024-02-23T16:12:57;4.70;;;1.00;;
14048;SDS011;7099;53.922;10.728;2024-02-23T16:17:06;3.27;;;1.10;;
14048;SDS011;7099;53.922;10.728;2024-02-23T16:21:12;2.97;;;1.10;;
14048;SDS011;7099;53.922;10.728;2024-02-23T16:25:21;3.70;;;1.10;;
14048;SDS011;7099;53.922;10.728;2024-02-23T16:29:26;1.47;;;1.00;;
14048;SDS011;7099;53.922;10.728;2024-02-23T16:33:34;4.73;;;1.07;;
14048;SDS011;7099;53.922;10.728;2024-02-23T16:37:40;1.90;;;0.93;;
14048;SDS011;7099;53.922;10.728;2024-02-23T16:41:45;1.80;;;0.83;;
14048;SDS011;7099;53.922;10.728;2024-02-23T16:45:51;3.23;;;0.90;;
14048;SDS011;7099;53.922;10.728;2024-02-23T16:49:56;1.63;;;1.00;;
14048;SDS011;7099;53.922;10.728;2024-02-23T16:54:02;3.23;;;1.00;;
14048;SDS011;7099;53.922;10.728;2024-02-23T16:58:08;3.40;;;1.10;;
14048;SDS011;7099;53.922;10.728;2024-02-23T17:02:13;2.20;;;0.93;;
14048;SDS011;7099;53.922;10.728;2024-02-23T17:06:19;1.77;;;0.90;;
14048;SDS011;7099;53.922;10.728;2024-02-23T17:10:25;1.33;;;0.80;;
14048;SDS011;7099;53.922;10.728;2024-02-23T17:14:30;1.60;;;1.03;;
14048;SDS011;7099;53.922;10.728;2024-02-23T17:18:36;2.57;;;1.07;;
14048;SDS011;7099;53.922;10.728;2024-02-23T17:22:42;1.10;;;1.00;;
14048;SDS011;7099;53.922;10.728;2024-02-23T17:26:48;2.10;;;0.90;;
14048;SDS011;7099;53.922;10.728;2024-02-23T17:30:54;1.30;;;0.90;;
14048;SDS011;7099;53.922;10.728;2024-02-23T17:34:59;4.50;;;1.10;;
14048;SDS011;7099;53.922;10.728;2024-02-23T17:39:05;4.00;;;1.20;;
14048;SDS011;7099;53.922;10.728;2024-02-23T17:43:10;5.70;;;1.33;;
14048;SDS011;7099;53.922;10.728;2024-02-23T17:47:16;1.47;;;1.07;;
14048;SDS011;7099;53.922;10.728;2024-02-23T17:51:24;2.00;;;1.00;;
14048;SDS011;7099;53.922;10.728;2024-02-23T17:55:30;1.53;;;0.97;;
14048;SDS011;7099;53.922;10.728;2024-02-23T17:59:36;2.93;;;1.50;;
14048;SDS011;7099;53.922;10.728;2024-02-23T18:03:43;1.80;;;1.13;;
14048;SDS011;7099;53.922;10.728;2024-02-23T18:07:48;1.70;;;0.97;;
14048;SDS011;7099;53.922;10.728;2024-02-23T18:11:54;1.53;;;1.10;;
14048;SDS011;7099;53.922;10.728;2024-02-23T18:16:00;5.60;;;1.47;;
14048;SDS011;7099;53.922;10.728;2024-02-23T18:20:08;3.30;;;1.17;;
14048;SDS011;7099;53.922;10.728;2024-02-23T18:24:16;5.30;;;1.30;;
14048;SDS011;7099;53.922;10.728;2024-02-23T18:28:21;2.40;;;1.10;;
14048;SDS011;7099;53.922;10.728;2024-02-23T18:32:27;3.90;;;1.10;;
14048;SDS011;7099;53.922;10.728;2024-02-23T18:36:34;4.77;;;1.10;;
14048;SDS011;7099;53.922;10.728;2024-02-23T18:40:39;3.57;;;1.27;;
14048;SDS011;7099;53.922;10.728;2024-02-23T18:44:44;4.67;;;1.20;;
14048;SDS011;7099;53.922;10.728;2024-02-23T18:48:51;2.23;;;1.20;;
14048;SDS011;7099;53.922;10.728;2024-02-23T18:52:58;6.27;;;1.20;;
14048;SDS011;7099;53.922;10.728;2024-02-23T18:57:04;5.43;;;1.50;;
14048;SDS011;7099;53.922;10.728;2024-02-23T19:01:09;1.30;;;1.07;;
14048;SDS011;7099;53.922;10.728;2024-02-23T19:05:17;2.83;;;1.17;;
14048;SDS011;7099;53.922;10.728;2024-02-23T19:09:23;2.27;;;1.43;;
14048;SDS011;7099;53.922;10.728;2024-02-23T19:13:28;8.93;;;1.73;;
14048;SDS011;7099;53.922;10.728;2024-02-23T19:17:34;1.50;;;1.20;;
14048;SDS011;7099;53.922;10.728;2024-02-23T19:29:52;1.77;;;1.20;;
14048;SDS011;7099;53.922;10.728;2024-02-23T19:33:58;7.10;;;1.53;;
14048;SDS011;7099;53.922;10.728;2024-02-23T19:42:12;6.57;;;1.23;;
14048;SDS011;7099;53.922;10.728;2024-02-23T19:46:19;4.77;;;1.57;;
14048;SDS011;7099;53.922;10.728;2024-02-23T19:50:26;3.60;;;1.40;;
14048;SDS011;7099;53.922;10.728;2024-02-23T19:54:32;9.10;;;1.60;;
14048;SDS011;7099;53.922;10.728;2024-02-23T20:31:24;1.40;;;1.10;;
14048;SDS011;7099;53.922;10.728;2024-02-23T20:35:29;2.63;;;1.33;;
14048;SDS011;7099;53.922;10.728;2024-02-23T20:39:35;4.30;;;1.43;;
14048;SDS011;7099;53.922;10.728;2024-02-23T20:43:41;2.80;;;1.03;;
14048;SDS011;7099;53.922;10.728;2024-02-23T20:47:46;4.87;;;1.47;;
14048;SDS011;7099;53.922;10.728;2024-02-23T20:51:52;2.90;;;1.80;;
14048;SDS011;7099;53.922;10.728;2024-02-23T20:56:01;2.40;;;1.53;;
14048;SDS011;7099;53.922;10.728;2024-02-23T21:00:07;1.90;;;1.40;;
14048;SDS011;7099;53.922;10.728;2024-02-23T21:04:13;3.67;;;1.50;;
14048;SDS011;7099;53.922;10.728;2024-02-23T21:08:19;2.73;;;1.33;;
14048;SDS011;7099;53.922;10.728;2024-02-23T21:12:25;6.87;;;1.43;;
14048;SDS011;7099;53.922;10.728;2024-02-23T21:16:30;3.47;;;1.60;;
14048;SDS011;7099;53.922;10.728;2024-02-23T21:20:36;2.90;;;1.60;;
14048;SDS011;7099;53.922;10.728;2024-02-23T21:24:42;1.17;;;1.07;;
14048;SDS011;7099;53.922;10.728;2024-02-23T21:28:51;2.20;;;1.23;;
14048;SDS011;7099;53.922;10.728;2024-02-23T21:32:57;3.87;;;1.30;;
14048;SDS011;7099;53.922;10.728;2024-02-23T21:37:03;4.00;;;1.93;;
14048;SDS011;7099;53.922;10.728;2024-02-23T21:41:08;1.50;;;1.10;;
14048;SDS011;7099;53.922;10.728;2024-02-23T21:49:20;4.47;;;1.63;;
14048;SDS011;7099;53.922;10.728;2024-02-23T21:53:25;1.80;;;1.40;;
14048;SDS011;7099;53.922;10.728;2024-02-23T21:57:31;2.17;;;1.37;;
14048;SDS011;7099;53.922;10.728;2024-02-23T22:01:37;3.00;;;1.50;;
14048;SDS011;7099;53.922;10.728;2024-02-23T22:05:42;9.07;;;1.50;;
14048;SDS011;7099;53.922;10.728;2024-02-23T22:09:48;3.83;;;1.40;;
14048;SDS011;7099;53.922;10.728;2024-02-23T22:14:02;3.27;;;1.30;;
14048;SDS011;7099;53.922;10.728;2024-02-23T22:18:08;3.07;;;1.30;;
14048;SDS011;7099;53.922;10.728;2024-02-23T22:22:14;2.63;;;1.87;;
14048;SDS011;7099;53.922;10.728;2024-02-23T22:26:19;3.67;;;1.80;;
14048;SDS011;7099;53.922;10.728;2024-02-23T22:30:25;3.60;;;1.60;;
14048;SDS011;7099;53.922;10.728;2024-02-23T22:34:30;2.10;;;1.43;;
14048;SDS011;7099;53.922;10.728;2024-02-23T22:38:36;3.00;;;1.30;;
14048;SDS011;7099;53.922;10.728;2024-02-23T22:50:59;2.20;;;1.50;;
14048;SDS011;7099;53.922;10.728;2024-02-23T22:55:05;4.50;;;1.77;;
14048;SDS011;7099;53.922;10.728;2024-02-23T22:59:10;3.00;;;1.40;;
14048;SDS011;7099;53.922;10.728;2024-02-23T23:03:16;6.70;;;1.67;;
14048;SDS011;7099;53.922;10.728;2024-02-23T23:15:34;9.80;;;2.27;;
14048;SDS011;7099;53.922;10.728;2024-02-23T23:23:44;6.63;;;3.67;;
14048;SDS011;7099;53.922;10.728;2024-02-23T23:27:50;4.90;;;2.53;;
14048;SDS011;7099;53.922;10.728;2024-02-23T23:31:57;5.50;;;2.10;;
14048;SDS011;7099;53.922;10.728;2024-02-23T23:36:02;3.97;;;1.90;;
14048;SDS011;7099;53.922;10.728;2024-02-23T23:40:08;2.93;;;1.60;;
14048;SDS011;7099;53.922;10.728;2024-02-23T23:44:14;2.93;;;1.47;;
14048;SDS011;7099;53.922;10.728;2024-02-23T23:48:20;2.97;;;1.40;;
